Terminal Aerodrome Forecast
Issued by NWS North Platte, NE

Home | Current Version | Previous Version | Text Only | Print | Product List | Glossary Off
Versions: 1 2 3 4 5 6 7 8 9 10 11 12 13 14 15 16 17 18 19 20 21 22 23 24 25 26 27 28

000
FTUS43 KLBF 280417 AAA
TAFVTN
TAF AMD
KVTN 280417Z 2804/2824 07005KT P6SM FEW040 BKN250
     FM281500 09007KT P6SM SCT150
     FM281800 08009KT P6SM SCT050 BKN100 BKN250=

USA.gov is the U.S. government's official web portal to all federal, state and local government web resources and services.